Wheeler, Mississippi
Current Conditions -  °F | °C
As of 4:53 PM on Saturday 25 Oct 2014 (Local Time) from KTUP Reporting Station
Clear Clear  
Wind Chill: 27°   Ceiling: Unl
Heat Index: 27°   Visibility: 10mi
Dew Point: 17°   Wind: 6mph
Humidity: 54%   Direction: 270°W
Pressure: 30.03"   Gusts: NA
Location:  34.58°N, 88.61°W
Report Text: KTUP 252153Z 27005KT 10SM CLR 27/17 A3003 RMK AO2 SLP167 T02670167 $
Loading
Personal Weather Stations






























Interactive Weather Map
Tropical Storm Tracking
New forecast layout! Learn more

10-Day Weather Forecast

Advertisements
Track Severe Weather on mobile